Kingsport, Tennessee
Current Conditions -  °F | °C
As of 7:53 PM on Wednesday 17 Dec 2014 (Local Time) from KTRI Reporting Station
Broken Clouds Broken Clouds  
Wind Chill: 37°   Ceiling: 22000
Heat Index: 37°   Visibility: 10mi
Dew Point: 31°   Wind: 0mph
Humidity: 79%   Direction: NA
Pressure: 30.18"   Gusts: NA
Location:  36.55°N, 82.56°W
Report Text: KTRI 180053Z 00000KT 10SM BKN220 03/M01 A3018 RMK AO2 SLP216 T00281006
Loading
Personal Weather Stations






























Interactive Weather Map New forecast layout! Learn more

10-Day Weather Forecast

Advertisements
Track Severe Weather on mobile